Airfield :
LOGIN :

Register | Disclaimer

   EN    FR    IT 

 










Legend :    VFR   Marginal VFR   IFR   Intensive IFR   Very Intensive IFR
Visi :
Ceiling :
>= 8 km
>= 3000ft
5 to 8 km
1000 to 3000 ft
1500m to 5 km
500 to 1000 ft
800 to 1500m
200 to 500 ft
< 800m
< 200 ft
Symbols :   Thunderstorms  Fog  Heavy snow  Heavy precipitations  Wind > 20 kt
SIGMETs :     Misc.  Thunderstorms  Icing  Turbulence  Mountain Waves  Volcanic Ashes






- Airport Elevation : 135 ft
- IATA code : EDI


EGPH - Edinburgh

CURRENT METAR :
  • 192020Z 23006KT 9999 BKN025 19/15 Q1010

EXPIRED METARs :
  • 191950Z 21005KT 180V240 9999 SCT025 BKN039 19/15 Q1010
  • 191920Z 23008KT 9999 BKN023 19/15 Q1010
  • 191850Z 21009KT 9999 BKN024 20/15 Q1010
  • 191820Z 23011KT 9999 BKN023 BKN040 20/15 Q1010
  • 191750Z 21011KT 9999 SCT023 BKN040 20/15 Q1010
  • 191720Z 21012KT 9999 BKN023 20/15 Q1011
  • 191650Z 19011KT 9999 BKN022 20/15 Q1011
  • 191620Z 21011KT 9999 BKN023 20/15 Q1011
  • 191550Z 21013KT 9999 BKN021 20/15 Q1011

TAF TAF EGPH
Valid from the 19 at 18:00 until the 20 at 18:00 UTC


191657Z 1918/2018 19009KT 9999 SCT024
TEMPO 2016/2018 6000 RA SHRA
ATIS : +44 131 339 2823



MET'MAP, your aeronautical weather chart ! - Copyright ORBIFLY December 2007 - Disclaimer

ORBIFLY MET'MAP TEAM :

Programming & Development : Alexandra Zaïnal
Original concept : Baudouin d'Aumeries
Technical & hardware support : Manuel Goepfert
Assistance : Marc-Olivier Méhu




SOURCES & CREDITS :

   NOAA